createdAt,value
2019-04-10T09:30:08.712Z,7.00
2019-04-10T09:32:38.881Z,7.40
2019-04-10T09:35:08.776Z,8.60
2019-04-10T09:37:38.023Z,9.20
2019-04-10T09:40:08.880Z,9.10
2019-04-10T09:42:37.624Z,9.10
2019-04-10T09:45:06.294Z,9.20
2019-04-10T09:47:35.015Z,9.70
2019-04-10T09:50:03.965Z,9.70
2019-04-10T09:52:32.656Z,10.00
2019-04-10T09:55:01.351Z,9.80
2019-04-10T09:57:30.027Z,9.50
2019-04-10T09:59:58.912Z,10.10
2019-04-10T10:02:27.794Z,9.60
2019-04-10T10:04:56.488Z,9.80
2019-04-10T10:07:26.255Z,10.60
2019-04-10T10:09:58.941Z,9.90
2019-04-10T10:12:25.717Z,9.70
2019-04-10T10:14:54.374Z,9.20
2019-04-10T10:17:23.037Z,9.00
2019-04-10T10:19:53.561Z,9.40
2019-04-10T10:22:23.109Z,9.90
2019-04-10T10:24:53.019Z,9.90
2019-04-10T10:39:47.613Z,10.90
2019-04-10T10:42:16.316Z,10.80
2019-04-10T10:44:45.944Z,10.80
2019-04-10T10:47:15.835Z,10.90
2019-04-10T10:49:44.581Z,10.30
2019-04-10T10:52:13.287Z,9.80
2019-04-10T10:54:43.145Z,9.70
2019-04-10T10:57:13.097Z,9.40
2019-04-10T10:59:46.087Z,9.10
2019-04-10T11:02:14.793Z,10.00
2019-04-10T11:04:43.473Z,10.40
2019-04-10T11:07:12.171Z,9.90
2019-04-10T11:09:41.913Z,10.10
2019-04-10T11:12:12.188Z,9.90
2019-04-10T11:14:41.334Z,9.20
2019-04-10T11:17:11.564Z,8.90
2019-04-10T11:19:41.239Z,8.70
2019-04-10T11:22:12.632Z,8.90
2019-04-10T11:24:41.291Z,8.40
2019-04-10T11:27:11.877Z,8.30
2019-04-10T11:29:40.905Z,8.30
2019-04-10T11:32:09.577Z,8.30
2019-04-10T11:34:38.311Z,8.20
2019-04-10T11:37:19.179Z,7.50
2019-04-10T11:39:40.417Z,7.70
2019-04-10T11:42:09.970Z,7.50
2019-04-10T11:44:39.608Z,7.40
2019-04-10T11:47:10.041Z,7.30
2019-04-10T11:49:42.777Z,7.60
2019-04-10T11:52:10.442Z,7.70
2019-04-10T11:54:41.362Z,7.70
2019-04-10T11:57:10.017Z,7.70
2019-04-10T11:59:41.053Z,7.90
2019-04-10T12:02:10.227Z,7.90
2019-04-10T12:04:52.067Z,8.20
2019-04-10T12:07:25.098Z,8.40
2019-04-10T12:12:11.264Z,8.60
2019-04-10T12:14:39.996Z,8.60
2019-04-10T12:17:09.671Z,8.80
2019-04-10T12:19:38.557Z,8.70
2019-04-10T12:22:07.494Z,8.50
2019-04-10T12:24:36.413Z,8.40
2019-04-10T12:27:06.488Z,8.60
2019-04-10T12:29:35.638Z,8.80
2019-04-10T12:32:04.905Z,8.80
2019-04-10T12:34:34.125Z,8.60
2019-04-10T12:37:02.941Z,8.30
2019-04-10T12:39:32.207Z,7.90
2019-04-10T12:42:00.905Z,7.50
2019-04-10T12:44:29.686Z,7.20
2019-04-10T12:46:59.501Z,6.80
2019-04-10T12:49:28.238Z,6.80
2019-04-10T12:51:56.940Z,6.80
2019-04-10T12:54:25.810Z,7.10
2019-04-10T12:56:54.721Z,7.20
2019-04-10T12:59:23.607Z,7.30
2019-04-10T13:01:53.912Z,7.50
2019-04-10T13:04:22.929Z,7.50
2019-04-10T13:06:52.736Z,7.70
2019-04-10T13:09:22.166Z,7.60
2019-04-10T13:11:51.180Z,7.50
2019-04-10T13:14:19.877Z,7.20
2019-04-10T13:16:50.829Z,6.90
2019-04-10T13:19:18.863Z,6.70
2019-04-10T13:21:47.561Z,6.50
2019-04-10T13:24:17.306Z,6.50
2019-04-10T13:26:46.172Z,6.50
2019-04-10T13:29:14.892Z,6.50
2019-04-10T13:31:44.426Z,6.40
2019-04-10T13:34:13.367Z,6.50
2019-04-10T13:36:42.063Z,6.60
2019-04-10T13:39:16.357Z,6.70
2019-04-10T13:41:44.975Z,6.90
2019-04-10T13:44:14.126Z,7.00
2019-04-10T13:46:42.917Z,7.10
2019-04-10T13:49:11.599Z,7.20
2019-04-10T13:51:40.397Z,7.00
2019-04-10T13:54:09.054Z,7.00
2019-04-10T13:56:37.751Z,7.00
2019-04-10T13:59:06.807Z,7.10
2019-04-10T14:09:22.572Z,6.50
2019-04-10T14:11:35.353Z,6.20
2019-04-10T14:14:06.545Z,5.90
2019-04-10T14:16:35.254Z,6.00
2019-04-10T14:19:03.966Z,5.90
2019-04-10T14:21:33.248Z,6.00
2019-04-10T14:24:04.078Z,5.90
2019-04-10T14:26:41.926Z,5.80
2019-04-10T14:29:05.287Z,5.80
2019-04-10T14:31:36.282Z,5.70
2019-04-10T14:34:04.985Z,5.80
2019-04-10T14:36:34.413Z,6.00
2019-04-10T14:39:12.178Z,5.80
2019-04-10T14:41:33.785Z,5.80
2019-04-10T14:44:03.997Z,5.80
2019-04-10T14:46:33.708Z,5.80
2019-04-10T14:49:02.797Z,5.70
2019-04-10T14:51:32.557Z,5.70
2019-04-10T14:54:01.696Z,5.50
2019-04-10T14:56:30.712Z,5.70
2019-04-10T14:58:59.743Z,5.80
2019-04-10T15:01:30.276Z,5.80
2019-04-10T15:03:59.138Z,5.80
2019-04-10T15:06:27.825Z,5.60
2019-04-10T15:08:57.672Z,5.60
2019-04-10T15:11:26.663Z,5.60
2019-04-10T15:13:55.486Z,5.50
2019-04-10T15:16:25.197Z,5.50
2019-04-10T15:18:54.211Z,5.50
2019-04-10T15:21:23.093Z,5.50
2019-04-10T15:23:51.776Z,5.50
2019-04-10T15:26:20.505Z,5.50
2019-04-10T15:28:51.973Z,5.50
2019-04-10T15:31:21.525Z,5.40
2019-04-10T15:33:50.434Z,5.10
2019-04-10T15:36:20.002Z,5.10
2019-04-10T15:38:48.788Z,4.90
2019-04-10T15:41:17.476Z,4.90
2019-04-10T15:43:47.713Z,5.00
2019-04-10T15:46:17.160Z,4.90
2019-04-10T15:48:46.094Z,4.80
2019-04-10T15:51:14.801Z,4.70
2019-04-10T15:53:45.191Z,4.70
2019-04-10T15:56:14.272Z,4.70
2019-04-10T15:58:43.808Z,4.60
2019-04-10T16:01:14.399Z,4.50
2019-04-10T16:03:43.089Z,4.40
2019-04-10T16:06:11.765Z,4.40
2019-04-10T16:08:40.645Z,4.40
2019-04-10T16:11:11.868Z,4.30
2019-04-10T16:13:42.460Z,4.10
2019-04-10T16:16:21.674Z,4.20
2019-04-10T16:18:52.843Z,4.20
2019-04-10T16:21:21.632Z,4.20
2019-04-10T16:23:51.901Z,4.10
2019-04-10T16:26:40.932Z,4.00
2019-04-10T16:29:10.138Z,3.90
2019-04-10T16:31:39.704Z,3.90
2019-04-10T16:34:09.210Z,4.00
2019-04-10T16:36:38.032Z,4.10
2019-04-10T16:39:11.299Z,4.10
2019-04-10T16:41:40.418Z,4.00
2019-04-10T16:44:09.096Z,3.90
2019-04-10T16:46:38.321Z,4.00
2019-04-10T16:49:07.255Z,3.90
2019-04-10T16:51:36.594Z,3.90
2019-04-10T16:54:06.261Z,3.90
2019-04-10T16:56:36.014Z,3.90
2019-04-10T16:59:04.777Z,3.90
2019-04-10T17:01:33.440Z,3.90
2019-04-10T17:04:02.781Z,3.90
2019-04-10T17:06:32.459Z,3.80
2019-04-10T17:09:02.634Z,3.80
2019-04-10T17:11:31.997Z,3.70
2019-04-10T17:14:00.868Z,3.70
2019-04-10T17:16:29.538Z,3.70
2019-04-10T17:18:59.224Z,3.80
2019-04-10T17:21:30.636Z,3.80
2019-04-10T17:23:58.750Z,3.80
2019-04-10T17:26:27.732Z,3.70
2019-04-10T17:28:56.633Z,3.60
2019-04-10T17:31:26.623Z,3.70
2019-04-10T17:33:56.665Z,3.70
2019-04-10T17:36:25.489Z,3.60
2019-04-10T17:38:55.284Z,3.60
2019-04-10T17:41:24.162Z,3.50
2019-04-10T17:43:54.426Z,3.50
2019-04-10T17:46:23.344Z,3.50
2019-04-10T17:48:52.013Z,3.60
2019-04-10T17:51:21.866Z,3.50
2019-04-10T17:53:51.005Z,3.50
2019-04-10T17:56:20.138Z,3.60
2019-04-10T17:58:49.792Z,3.60
2019-04-10T18:01:20.851Z,3.60
2019-04-10T18:03:52.210Z,3.60
2019-04-10T18:06:19.428Z,3.60
2019-04-10T18:08:49.282Z,3.60
2019-04-10T18:11:18.297Z,3.60
2019-04-10T18:13:47.040Z,3.60
2019-04-10T18:16:15.682Z,3.60
2019-04-10T18:18:45.705Z,3.60
2019-04-10T18:21:14.840Z,3.60
2019-04-10T18:23:43.933Z,3.50
2019-04-10T18:26:12.901Z,3.50
2019-04-10T18:28:41.608Z,3.50
2019-04-10T18:31:10.435Z,3.50
2019-04-10T18:33:39.517Z,3.50
2019-04-10T18:36:08.464Z,3.40
2019-04-10T18:38:57.641Z,3.50
2019-04-10T18:41:27.636Z,3.40
2019-04-10T18:43:56.602Z,3.40
2019-04-10T18:46:25.368Z,3.40
2019-04-10T18:48:54.944Z,3.40
2019-04-10T18:51:23.863Z,3.40
2019-04-10T18:53:53.370Z,3.40
2019-04-10T18:56:22.211Z,3.40
2019-04-10T18:58:52.461Z,3.40
2019-04-10T19:01:39.243Z,3.30
2019-04-10T19:04:12.138Z,3.30
2019-04-10T19:06:49.688Z,3.30
2019-04-10T19:09:24.538Z,3.30
2019-04-10T19:11:50.565Z,3.30
2019-04-10T19:14:20.720Z,3.30
2019-04-10T19:16:49.910Z,3.30
2019-04-10T19:19:18.672Z,3.30
2019-04-10T19:21:48.468Z,3.20
2019-04-10T19:24:17.473Z,3.20
2019-04-10T19:26:47.226Z,3.20
2019-04-10T19:29:17.130Z,3.20
2019-04-10T19:31:47.790Z,3.30
2019-04-10T19:34:16.994Z,3.20
2019-04-10T19:36:46.043Z,3.20
2019-04-10T19:39:16.007Z,3.20
2019-04-10T19:41:44.989Z,3.20
2019-04-10T19:44:14.839Z,3.20
2019-04-10T19:46:43.956Z,3.10
2019-04-10T19:49:12.772Z,3.10
2019-04-10T19:51:42.554Z,3.10
2019-04-10T19:54:11.527Z,3.10
2019-04-10T19:56:40.516Z,3.10
2019-04-10T19:59:10.312Z,3.20
2019-04-10T20:01:39.360Z,3.10
2019-04-10T20:04:08.286Z,3.20
2019-04-10T20:06:38.440Z,3.20
2019-04-10T20:09:08.438Z,3.10
2019-04-10T20:11:42.120Z,3.10
2019-04-10T20:14:08.304Z,3.10
2019-04-10T20:16:37.499Z,3.00
2019-04-10T20:19:07.551Z,3.00
2019-04-10T20:21:36.498Z,3.00
2019-04-10T20:24:05.158Z,3.00
2019-04-10T20:26:34.882Z,3.00
2019-04-10T20:29:04.592Z,2.90
2019-04-10T20:31:34.974Z,3.00
2019-04-10T20:34:05.333Z,2.90
2019-04-10T20:36:35.269Z,2.90
2019-04-10T20:39:06.186Z,2.90
2019-04-10T20:41:47.682Z,2.80
2019-04-10T20:44:07.189Z,2.80
2019-04-10T20:46:36.233Z,2.90
2019-04-10T20:49:07.606Z,2.90
2019-04-10T20:51:35.228Z,2.90
2019-04-10T20:54:04.387Z,2.90
2019-04-10T20:56:52.470Z,2.90
2019-04-10T20:59:21.160Z,3.00
2019-04-10T21:01:49.825Z,2.90
2019-04-10T21:04:18.529Z,3.00
2019-04-10T21:06:48.170Z,2.90
2019-04-10T21:09:17.267Z,2.90
2019-04-10T21:11:58.005Z,2.80
2019-04-10T21:14:16.301Z,2.80
2019-04-10T21:16:44.972Z,2.80
2019-04-10T21:19:13.672Z,2.90
2019-04-10T21:21:43.342Z,2.80
2019-04-10T21:24:13.345Z,2.80
2019-04-10T21:26:42.207Z,2.90
2019-04-10T21:29:12.795Z,2.90
2019-04-10T21:31:59.088Z,2.90
2019-04-10T21:34:32.556Z,2.90
2019-04-10T21:37:01.835Z,2.90
2019-04-10T21:39:31.785Z,2.80
2019-04-10T21:42:12.019Z,2.80
2019-04-10T21:44:31.079Z,2.80
2019-04-10T21:46:59.770Z,2.80
2019-04-10T21:49:28.449Z,2.90
2019-04-10T21:51:57.902Z,2.90
2019-04-10T21:54:27.010Z,2.90
2019-04-10T21:56:55.981Z,2.90
2019-04-10T21:59:24.839Z,2.80
2019-04-10T22:01:53.646Z,2.80
2019-04-10T22:04:23.170Z,2.80
2019-04-10T22:07:05.534Z,2.80
2019-04-10T22:09:39.075Z,2.80
2019-04-10T22:12:22.187Z,2.90
2019-04-10T22:14:39.896Z,2.90
2019-04-10T22:17:10.778Z,2.90
2019-04-10T22:19:40.913Z,2.80
2019-04-10T22:22:11.230Z,2.90
2019-04-10T22:24:40.538Z,2.90
2019-04-10T22:27:09.422Z,2.80
2019-04-10T22:29:38.944Z,2.90
2019-04-10T22:32:08.665Z,2.90
2019-04-10T22:34:38.460Z,2.90
2019-04-10T22:37:07.162Z,2.90
2019-04-10T22:39:35.928Z,2.80
2019-04-10T22:42:05.838Z,2.90
2019-04-10T22:44:40.218Z,2.80
2019-04-10T22:47:05.117Z,2.80
2019-04-10T22:49:34.963Z,2.80
2019-04-10T22:52:04.689Z,2.80
2019-04-10T22:54:34.406Z,2.80
2019-04-10T22:57:03.390Z,2.80
2019-04-10T22:59:32.652Z,2.90
2019-04-10T23:02:07.356Z,2.90
2019-04-10T23:04:32.571Z,2.90
2019-04-10T23:07:01.758Z,2.80
2019-04-10T23:09:30.662Z,2.90
2019-04-10T23:12:00.188Z,2.80
2019-04-10T23:14:29.132Z,2.90
2019-04-10T23:16:57.793Z,2.90
2019-04-10T23:19:26.492Z,2.90
2019-04-10T23:21:55.177Z,2.80
2019-04-10T23:24:23.852Z,2.70
2019-04-10T23:26:53.379Z,2.70
2019-04-10T23:29:22.372Z,2.70
2019-04-10T23:31:52.015Z,2.70
2019-04-10T23:34:20.957Z,2.70
2019-04-10T23:36:50.673Z,2.80
2019-04-10T23:39:19.798Z,2.80
2019-04-10T23:41:50.917Z,2.80
2019-04-10T23:44:18.867Z,2.80
2019-04-10T23:46:47.557Z,2.80
2019-04-10T23:49:17.154Z,2.80
2019-04-10T23:51:47.353Z,2.80
2019-04-10T23:54:17.256Z,2.70
2019-04-10T23:56:49.091Z,2.70
2019-04-10T23:59:16.337Z,2.70
